createdAt,value
2015-12-26T00:00:12.777Z,68.67
2015-12-26T00:01:12.749Z,68.67
2015-12-26T00:02:15.829Z,68.67
2015-12-26T00:03:12.691Z,68.67
2015-12-26T00:04:12.663Z,68.57
2015-12-26T00:05:12.635Z,68.67
2015-12-26T00:06:12.637Z,68.67
2015-12-26T00:07:12.577Z,68.48
2015-12-26T00:08:12.549Z,68.67
2015-12-26T00:09:12.505Z,68.57
2015-12-26T00:10:12.569Z,68.57
2015-12-26T00:11:12.446Z,68.38
2015-12-26T00:12:12.418Z,68.57
2015-12-26T00:13:12.390Z,68.29
2015-12-26T00:14:12.565Z,68.48
2015-12-26T00:15:12.349Z,68.38
2015-12-26T00:16:12.305Z,68.57
2015-12-26T00:17:12.277Z,68.38
2015-12-26T00:18:12.577Z,68.54
2015-12-26T00:19:12.235Z,68.57
2015-12-26T00:20:12.191Z,68.67
2015-12-26T00:21:12.163Z,68.48
2015-12-26T00:22:12.149Z,68.57
2015-12-26T00:23:12.105Z,68.44
2015-12-26T00:24:12.312Z,68.67
2015-12-26T00:25:12.048Z,68.44
2015-12-26T00:26:12.379Z,68.54
2015-12-26T00:27:11.991Z,68.44
2015-12-26T00:28:11.947Z,68.54
2015-12-26T00:29:11.935Z,68.48
2015-12-26T00:30:11.937Z,68.44
2015-12-26T00:31:11.862Z,68.44
2015-12-26T00:32:11.848Z,68.54
2015-12-26T00:33:11.836Z,68.63
2015-12-26T00:34:12.167Z,68.54
2015-12-26T00:35:11.748Z,68.44
2015-12-26T00:36:11.751Z,68.44
2015-12-26T00:37:11.738Z,68.63
2015-12-26T00:38:11.678Z,68.54
2015-12-26T00:39:11.633Z,68.54
2015-12-26T00:40:11.620Z,68.54
2015-12-26T00:41:11.577Z,68.35
2015-12-26T00:42:11.657Z,68.63
2015-12-26T00:43:11.520Z,68.63
2015-12-26T00:44:11.491Z,68.63
2015-12-26T00:45:11.665Z,68.63
2015-12-26T00:46:11.418Z,68.54
2015-12-26T00:47:11.390Z,68.44
2015-12-26T00:48:11.486Z,68.54
2015-12-26T00:49:11.348Z,68.54
2015-12-26T00:50:11.320Z,68.25
2015-12-26T00:51:11.289Z,68.54
2015-12-26T00:52:11.275Z,68.73
2015-12-26T00:53:11.422Z,68.63
2015-12-26T00:54:11.344Z,68.44
2015-12-26T00:55:11.158Z,68.44
2015-12-26T00:56:11.333Z,68.44
2015-12-26T00:57:11.102Z,68.73
2015-12-26T00:58:11.072Z,68.63
2015-12-26T00:59:11.044Z,68.83
2015-12-26T01:00:11.016Z,68.54
2015-12-26T01:01:10.988Z,68.73
2015-12-26T01:02:10.959Z,68.54
2015-12-26T01:03:10.930Z,68.44
2015-12-26T01:04:11.089Z,68.63
2015-12-26T01:05:10.873Z,68.35
2015-12-26T01:06:10.844Z,68.73
2015-12-26T01:07:10.801Z,68.44
2015-12-26T01:08:10.772Z,68.83
2015-12-26T01:09:10.744Z,68.73
2015-12-26T01:10:10.715Z,68.83
2015-12-26T01:11:10.686Z,68.73
2015-12-26T01:12:10.861Z,68.83
2015-12-26T01:13:10.629Z,68.83
2015-12-26T01:14:10.601Z,68.63
2015-12-26T01:15:10.776Z,68.73
2015-12-26T01:16:10.559Z,68.54
2015-12-26T01:17:10.516Z,68.83
2015-12-26T01:18:10.488Z,68.63
2015-12-26T01:19:10.443Z,68.83
2015-12-26T01:20:10.993Z,68.73
2015-12-26T01:21:10.401Z,68.63
2015-12-26T01:22:10.529Z,68.63
2015-12-26T01:23:10.548Z,68.83
2015-12-26T01:24:11.473Z,68.73
2015-12-26T01:25:10.288Z,68.83
2015-12-26T01:26:10.243Z,68.83
2015-12-26T01:27:10.215Z,68.83
2015-12-26T01:28:10.186Z,68.83
2015-12-26T01:29:10.173Z,68.73
2015-12-26T01:30:10.145Z,68.63
2015-12-26T01:31:10.429Z,68.63
2015-12-26T01:32:13.072Z,68.92
2015-12-26T01:33:09.294Z,69.6
2015-12-26T01:34:10.204Z,69.4
2015-12-26T01:35:09.971Z,69.21
2015-12-26T01:36:09.959Z,68.73
2015-12-26T01:37:09.929Z,69.12
2015-12-26T01:38:09.886Z,68.92
2015-12-26T01:39:09.873Z,69.02
2015-12-26T01:40:09.845Z,69.21
2015-12-26T01:41:09.800Z,68.92
2015-12-26T01:42:09.929Z,68.92
2015-12-26T01:43:09.743Z,69.02
2015-12-26T01:44:09.558Z,69.02
2015-12-26T01:45:09.701Z,69.12
2015-12-26T01:46:09.658Z,69.21
2015-12-26T01:47:09.614Z,69.21
2015-12-26T01:48:09.647Z,68.83
2015-12-26T01:49:09.572Z,68.83
2015-12-26T01:50:09.652Z,68.73
2015-12-26T01:51:09.496Z,69.02
2015-12-26T01:52:09.483Z,68.54
2015-12-26T01:53:09.658Z,69.12
2015-12-26T01:54:09.458Z,68.73
2015-12-26T01:55:09.383Z,68.83
2015-12-26T01:56:09.354Z,68.73
2015-12-26T01:57:09.325Z,68.63
2015-12-26T01:58:09.297Z,69.5
2015-12-26T01:59:09.269Z,69.31
2015-12-26T02:00:09.255Z,68.92
2015-12-26T02:01:09.399Z,68.83
2015-12-26T02:02:09.182Z,68.92
2015-12-26T02:03:09.154Z,68.83
2015-12-26T02:04:09.125Z,68.73
2015-12-26T02:05:09.082Z,69.02
2015-12-26T02:06:09.069Z,69.5
2015-12-26T02:07:09.041Z,68.92
2015-12-26T02:08:09.012Z,69.5
2015-12-26T02:09:09.093Z,69.5
2015-12-26T02:10:08.939Z,69.4
2015-12-26T02:11:08.910Z,69.5
2015-12-26T02:12:09.054Z,69.6
2015-12-26T02:13:08.901Z,69.31
2015-12-26T02:14:08.825Z,69.5
2015-12-26T02:15:08.813Z,69.6
2015-12-26T02:16:08.769Z,69.4
2015-12-26T02:17:08.177Z,70.46
2015-12-26T02:18:08.774Z,69.98
2015-12-26T02:19:08.683Z,69.79
2015-12-26T02:20:08.670Z,69.98
2015-12-26T02:21:08.610Z,69.79
2015-12-26T02:22:08.582Z,69.5
2015-12-26T02:23:08.552Z,69.4
2015-12-26T02:24:07.791Z,69.4
2015-12-26T02:25:08.513Z,69.69
2015-12-26T02:26:08.483Z,69.6
2015-12-26T02:27:08.438Z,69.6
2015-12-26T02:28:08.474Z,69.5
2015-12-26T02:29:08.382Z,69.31
2015-12-26T02:30:08.369Z,69.4
2015-12-26T02:31:08.529Z,69.69
2015-12-26T02:32:08.281Z,69.5
2015-12-26T02:33:08.268Z,69.31
2015-12-26T02:34:08.240Z,69.4
2015-12-26T02:35:08.196Z,69.4
2015-12-26T02:36:08.182Z,69.4
2015-12-26T02:37:08.154Z,69.5
2015-12-26T02:38:08.110Z,69.4
2015-12-26T02:39:08.081Z,69.69
2015-12-26T02:40:08.054Z,69.5
2015-12-26T02:41:08.024Z,69.5
2015-12-26T02:42:07.996Z,69.4
2015-12-26T02:43:07.967Z,69.31
2015-12-26T02:44:07.939Z,69.4
2015-12-26T02:45:07.926Z,69.69
2015-12-26T02:46:07.879Z,69.4
2015-12-26T02:47:07.960Z,69.6
2015-12-26T02:48:07.822Z,69.6
2015-12-26T02:49:07.825Z,69.6
2015-12-26T02:50:07.812Z,69.4
2015-12-26T02:51:07.721Z,69.4
2015-12-26T02:52:07.708Z,69.21
2015-12-26T02:53:07.664Z,69.79
2015-12-26T02:54:07.651Z,69.31
2015-12-26T02:55:07.622Z,69.4
2015-12-26T02:56:07.608Z,69.4
2015-12-26T02:57:07.550Z,69.6
2015-12-26T02:58:07.724Z,69.69
2015-12-26T02:59:07.492Z,69.31
2015-12-26T03:00:07.307Z,69.6
2015-12-26T03:01:07.435Z,69.5
2015-12-26T03:02:07.392Z,69.56
2015-12-26T03:03:07.379Z,69.4
2015-12-26T03:04:07.350Z,69.27
2015-12-26T03:05:07.306Z,69.6
2015-12-26T03:06:07.402Z,69.37
2015-12-26T03:07:07.249Z,69.4
2015-12-26T03:08:07.220Z,69.6
2015-12-26T03:09:07.286Z,69.5
2015-12-26T03:10:07.163Z,69.31
2015-12-26T03:11:07.119Z,69.21
2015-12-26T03:12:07.106Z,69.6
2015-12-26T03:13:10.077Z,69.5
2015-12-26T03:14:07.049Z,69.27
2015-12-26T03:15:07.021Z,69.5
2015-12-26T03:16:06.977Z,69.56
2015-12-26T03:17:07.058Z,69.31
2015-12-26T03:18:06.935Z,69.46
2015-12-26T03:19:06.891Z,69.46
2015-12-26T03:20:06.862Z,69.21
2015-12-26T03:21:06.834Z,69.37
2015-12-26T03:22:06.805Z,69.27
2015-12-26T03:23:06.761Z,69.46
2015-12-26T03:24:07.186Z,69.27
2015-12-26T03:25:06.923Z,69.56
2015-12-26T03:26:06.676Z,69.31
2015-12-26T03:27:06.662Z,69.08
2015-12-26T03:28:06.759Z,69.37
2015-12-26T03:29:06.621Z,69.08
2015-12-26T03:30:06.562Z,69.56
2015-12-26T03:31:06.533Z,69.6
2015-12-26T03:32:06.520Z,69.4
2015-12-26T03:33:06.491Z,69.02
2015-12-26T03:34:06.448Z,69.56
2015-12-26T03:35:06.451Z,69.37
2015-12-26T03:36:06.531Z,69.46
2015-12-26T03:37:06.362Z,69.37
2015-12-26T03:38:06.317Z,69.37
2015-12-26T03:39:06.321Z,69.5
2015-12-26T03:40:06.324Z,69.27
2015-12-26T03:41:06.247Z,69.56
2015-12-26T03:42:06.203Z,69.27
2015-12-26T03:43:06.207Z,69.46
2015-12-26T03:44:06.178Z,69.18
2015-12-26T03:45:06.133Z,69.18
2015-12-26T03:46:06.089Z,69.4
2015-12-26T03:47:06.061Z,69.5
2015-12-26T03:48:06.032Z,69.21
2015-12-26T03:49:06.003Z,69.08
2015-12-26T03:50:06.444Z,69.27
2015-12-26T03:51:05.931Z,69.12
2015-12-26T03:52:05.917Z,69.18
2015-12-26T03:53:05.886Z,68.92
2015-12-26T03:54:05.859Z,69.18
2015-12-26T03:55:06.159Z,69.5
2015-12-26T03:56:05.786Z,69.46
2015-12-26T03:57:05.772Z,69.5
2015-12-26T03:58:05.744Z,69.27
2015-12-26T03:59:05.700Z,69.18
2015-12-26T04:00:05.687Z,69.5
2015-12-26T04:01:05.647Z,69.5
2015-12-26T04:02:05.619Z,69.02
2015-12-26T04:03:05.591Z,68.83
2015-12-26T04:04:05.563Z,68.83
2015-12-26T04:05:05.533Z,69.5
2015-12-26T04:06:05.505Z,69.5
2015-12-26T04:07:05.460Z,69.4
2015-12-26T04:08:05.448Z,69.31
2015-12-26T04:09:05.419Z,68.92
2015-12-26T04:10:05.406Z,69.31
2015-12-26T04:11:05.332Z,69.5
2015-12-26T04:12:05.318Z,68.83
2015-12-26T04:13:05.321Z,68.92
2015-12-26T04:14:05.262Z,68.92
2015-12-26T04:15:05.232Z,69.31
2015-12-26T04:16:05.204Z,69.02
2015-12-26T04:17:05.160Z,69.31
2015-12-26T04:18:05.148Z,69.12
2015-12-26T04:19:05.103Z,69.21
2015-12-26T04:20:05.074Z,68.73
2015-12-26T04:21:05.248Z,68.92
2015-12-26T04:22:05.033Z,68.92
2015-12-26T04:23:05.004Z,68.63
2015-12-26T04:24:05.131Z,68.63
2015-12-26T04:25:04.932Z,68.92
2015-12-26T04:26:04.919Z,69.02
2015-12-26T04:27:04.889Z,69.02
2015-12-26T04:28:04.845Z,68.92
2015-12-26T04:29:04.818Z,69.02
2015-12-26T04:30:04.805Z,69.02
2015-12-26T04:31:04.745Z,69.02
2015-12-26T04:32:04.935Z,69.02
2015-12-26T04:33:04.720Z,68.63
2015-12-26T04:34:04.691Z,68.83
2015-12-26T04:35:04.647Z,68.83
2015-12-26T04:36:04.618Z,68.73
2015-12-26T04:37:04.574Z,68.92
2015-12-26T04:38:04.562Z,69.21
2015-12-26T04:39:04.517Z,69.02
2015-12-26T04:40:04.614Z,69.31
2015-12-26T04:41:04.461Z,68.83
2015-12-26T04:42:04.431Z,68.83
2015-12-26T04:43:04.466Z,69.27
2015-12-26T04:44:04.375Z,69.21
2015-12-26T04:45:04.347Z,69.21
2015-12-26T04:46:04.520Z,69.31
2015-12-26T04:47:04.289Z,68.73
2015-12-26T04:48:04.245Z,69.4
2015-12-26T04:49:04.217Z,68.83
2015-12-26T04:50:04.813Z,68.92
2015-12-26T04:51:04.269Z,69.4
2015-12-26T04:52:04.147Z,69.21
2015-12-26T04:53:07.118Z,69.31
2015-12-26T04:54:04.089Z,69.31
2015-12-26T04:55:04.045Z,69.31
2015-12-26T04:56:04.017Z,69.31
2015-12-26T04:57:03.986Z,69.4
2015-12-26T04:58:03.957Z,68.92
2015-12-26T04:59:04.053Z,69.4
2015-12-26T05:01:03.871Z,69.21
2015-12-26T05:02:03.983Z,68.92
2015-12-26T05:03:03.799Z,69.02
2015-12-26T05:04:03.785Z,68.73
2015-12-26T05:05:03.757Z,68.92
2015-12-26T05:06:03.713Z,68.73
2015-12-26T05:07:03.699Z,68.73
2015-12-26T05:08:03.657Z,69.12
2015-12-26T05:09:03.644Z,69.02
2015-12-26T05:10:03.771Z,68.83
2015-12-26T05:11:03.571Z,68.92
2015-12-26T05:12:03.558Z,69.02
2015-12-26T05:13:03.529Z,68.44
2015-12-26T05:14:03.501Z,68.92
2015-12-26T05:15:03.456Z,68.83
2015-12-26T05:16:03.428Z,68.73
2015-12-26T05:17:03.618Z,68.92
2015-12-26T05:18:03.371Z,68.73
2015-12-26T05:19:03.343Z,68.73
2015-12-26T05:20:03.360Z,68.83
2015-12-26T05:21:03.271Z,68.44
2015-12-26T05:22:03.258Z,68.83
2015-12-26T05:23:03.666Z,68.63
2015-12-26T05:24:03.184Z,68.63
2015-12-26T05:25:03.187Z,68.54
2015-12-26T05:26:03.127Z,68.44
2015-12-26T05:27:03.115Z,68.73
2015-12-26T05:28:03.062Z,68.63
2015-12-26T05:29:03.176Z,68.73
2015-12-26T05:30:02.977Z,68.73
2015-12-26T05:31:02.935Z,68.83
2015-12-26T05:32:02.894Z,68.83
2015-12-26T05:33:02.859Z,68.44
2015-12-26T05:34:02.841Z,68.73
2015-12-26T05:35:02.808Z,68.44
2015-12-26T05:36:02.822Z,68.73
2015-12-26T05:37:02.727Z,68.54
2015-12-26T05:38:02.695Z,68.54
2015-12-26T05:39:02.867Z,68.44
2015-12-26T05:40:02.651Z,68.35
2015-12-26T05:41:02.589Z,68.73
2015-12-26T05:42:02.573Z,68.54
2015-12-26T05:43:02.544Z,68.44
2015-12-26T05:44:02.500Z,68.73
2015-12-26T05:45:02.471Z,68.35
2015-12-26T05:46:02.442Z,68.63
2015-12-26T05:47:02.617Z,68.44
2015-12-26T05:48:02.382Z,68.54
2015-12-26T05:49:02.337Z,68.35
2015-12-26T05:50:02.324Z,68.73
2015-12-26T05:51:02.296Z,68.44
2015-12-26T05:52:02.266Z,68.35
2015-12-26T05:53:02.237Z,68.63
2015-12-26T05:54:02.193Z,68.54
2015-12-26T05:55:02.290Z,68.63
2015-12-26T05:56:02.168Z,68.35
2015-12-26T05:57:02.107Z,68.44
2015-12-26T05:58:02.298Z,68.35
2015-12-26T05:59:02.051Z,68.54
2015-12-26T06:00:02.038Z,68.35
2015-12-26T06:01:01.993Z,68.63
2015-12-26T06:02:01.965Z,68.63
2015-12-26T06:03:01.936Z,68.35
2015-12-26T06:04:01.908Z,68.44
2015-12-26T06:05:01.895Z,68.54
2015-12-26T06:06:02.054Z,68.44
2015-12-26T06:07:01.823Z,68.54
2015-12-26T06:08:01.795Z,68.35
2015-12-26T06:09:01.781Z,68.54
2015-12-26T06:10:01.737Z,68.54
2015-12-26T06:11:01.693Z,68.54
2015-12-26T06:12:01.665Z,68.54
2015-12-26T06:13:01.651Z,68.44
2015-12-26T06:14:01.733Z,68.44
2015-12-26T06:15:01.595Z,68.63
2015-12-26T06:16:01.551Z,68.44
2015-12-26T06:17:01.662Z,68.63
2015-12-26T06:18:01.494Z,68.44
2015-12-26T06:19:01.465Z,68.44
2015-12-26T06:20:01.436Z,68.44
2015-12-26T06:21:01.409Z,68.44
2015-12-26T06:22:01.381Z,68.44
2015-12-26T06:23:01.351Z,68.63
2015-12-26T06:24:01.323Z,68.54
2015-12-26T06:25:01.435Z,68.44
2015-12-26T06:26:01.250Z,68.54
2015-12-26T06:27:04.237Z,68.44
2015-12-26T06:28:01.208Z,68.54
2015-12-26T06:29:01.180Z,68.44
2015-12-26T06:30:01.152Z,68.44
2015-12-26T06:31:01.107Z,68.54
2015-12-26T06:32:01.297Z,68.44
2015-12-26T06:33:01.066Z,68.63
2015-12-26T06:34:01.038Z,68.44
2015-12-26T06:35:00.994Z,68.54
2015-12-26T06:36:00.964Z,68.44
2015-12-26T06:37:00.936Z,68.54
2015-12-26T06:38:00.923Z,68.54
2015-12-26T06:39:00.879Z,68.54
2015-12-26T06:40:00.832Z,68.44
2015-12-26T06:41:00.836Z,68.44
2015-12-26T06:42:00.807Z,68.54
2015-12-26T06:43:01.044Z,68.63
2015-12-26T06:44:00.719Z,68.54
2015-12-26T06:45:00.691Z,68.63
2015-12-26T06:46:00.677Z,68.54
2015-12-26T06:47:00.649Z,68.54
2015-12-26T06:48:00.604Z,68.44
2015-12-26T06:49:00.591Z,68.35
2015-12-26T06:50:00.579Z,68.44
2015-12-26T06:51:00.627Z,68.35
2015-12-26T06:52:00.505Z,68.54
2015-12-26T06:53:00.462Z,68.54
2015-12-26T06:54:00.496Z,68.63
2015-12-26T06:55:00.404Z,68.54
2015-12-26T06:56:00.376Z,68.44
2015-12-26T06:57:00.348Z,68.54
2015-12-26T06:58:00.319Z,68.54
2015-12-26T06:59:00.291Z,68.63
2015-12-26T07:00:00.262Z,68.54
2015-12-26T07:01:00.234Z,68.44
2015-12-26T07:02:00.283Z,68.54
2015-12-26T07:03:00.177Z,68.44
2015-12-26T07:04:00.132Z,68.44
2015-12-26T07:05:00.104Z,68.25
2015-12-26T07:06:00.090Z,68.63
2015-12-26T07:07:00.063Z,68.44
2015-12-26T07:08:00.019Z,68.44
2015-12-26T07:09:00.006Z,68.25
2015-12-26T07:09:59.915Z,68.25
2015-12-26T07:10:59.933Z,68.83
2015-12-26T07:11:59.905Z,68.44
2015-12-26T07:13:00.017Z,68.73
2015-12-26T07:13:59.863Z,68.63
2015-12-26T07:14:59.818Z,68.54
2015-12-26T07:15:59.776Z,68.35
2015-12-26T07:16:59.762Z,68.73
2015-12-26T07:17:59.734Z,68.44
2015-12-26T07:18:59.689Z,68.44
2015-12-26T07:19:59.957Z,68.73
2015-12-26T07:20:59.789Z,68.73
2015-12-26T07:21:59.635Z,68.73
2015-12-26T07:22:59.576Z,68.35
2015-12-26T07:23:59.547Z,68.44
2015-12-26T07:24:59.534Z,68.73
2015-12-26T07:25:59.333Z,68.6
2015-12-26T07:26:59.462Z,68.63
2015-12-26T07:27:59.637Z,68.73
2015-12-26T07:28:59.402Z,68.79
2015-12-26T07:29:59.373Z,68.83
2015-12-26T07:30:59.328Z,68.63
2015-12-26T07:31:59.316Z,68.83
2015-12-26T07:32:59.272Z,68.44
2015-12-26T07:33:59.243Z,68.73
2015-12-26T07:34:59.215Z,68.83
2015-12-26T07:35:59.202Z,68.63
2015-12-26T07:36:59.173Z,68.79
2015-12-26T07:37:59.144Z,68.63
2015-12-26T07:38:59.116Z,68.51
2015-12-26T07:39:59.072Z,68.83
2015-12-26T07:40:59.044Z,68.73
2015-12-26T07:41:59.014Z,68.63
2015-12-26T07:42:58.986Z,68.73
2015-12-26T07:43:58.942Z,68.25
2015-12-26T07:44:58.914Z,68.44
2015-12-26T07:45:58.901Z,68.41
2015-12-26T07:46:59.075Z,68.73
2015-12-26T07:47:58.828Z,68.44
2015-12-26T07:48:58.816Z,68.44
2015-12-26T07:49:58.975Z,68.83
2015-12-26T07:50:58.744Z,68.79
2015-12-26T07:51:58.714Z,68.54
2015-12-26T07:52:58.686Z,68.63
2015-12-26T07:53:58.658Z,68.12
2015-12-26T07:54:58.661Z,68.63
2015-12-26T07:55:58.601Z,68.54
2015-12-26T07:56:58.556Z,68.73
2015-12-26T07:57:58.747Z,68.35
2015-12-26T07:58:58.515Z,68.83
2015-12-26T07:59:58.472Z,68.6
2015-12-26T08:00:58.442Z,68.31
2015-12-26T08:01:58.430Z,68.73
2015-12-26T08:02:58.402Z,68.7
2015-12-26T08:03:58.372Z,68.44
2015-12-26T08:04:58.328Z,67.96
2015-12-26T08:05:58.410Z,67.61
2015-12-26T08:06:58.271Z,66.94
2015-12-26T08:07:58.290Z,66.74
2015-12-26T08:08:58.418Z,66.36
2015-12-26T08:09:58.170Z,66.01
2015-12-26T08:10:58.157Z,65.91
2015-12-26T08:11:58.129Z,65.72
2015-12-26T08:12:58.100Z,65.24
2015-12-26T08:13:58.057Z,64.76
2015-12-26T08:14:58.028Z,64.69
2015-12-26T08:15:58.013Z,64.21
2015-12-26T08:16:58.171Z,64.15
2015-12-26T08:17:57.940Z,63.47
2015-12-26T08:18:57.910Z,63.57
2015-12-26T08:19:57.898Z,63.38
2015-12-26T08:20:57.854Z,63.09
2015-12-26T08:21:57.825Z,62.99
2015-12-26T08:22:57.813Z,63.18
2015-12-26T08:24:00.800Z,63.18
2015-12-26T08:24:57.943Z,63.47
2015-12-26T08:25:57.712Z,63.41
2015-12-26T08:26:57.667Z,63.47
2015-12-26T08:27:57.857Z,63.02
2015-12-26T08:28:57.626Z,62.93
2015-12-26T08:29:57.613Z,63.18
2015-12-26T08:30:57.568Z,63.38
2015-12-26T08:31:57.524Z,62.73
2015-12-26T08:32:57.512Z,63.28
2015-12-26T08:33:57.498Z,62.9
2015-12-26T08:34:57.440Z,63.18
2015-12-26T08:35:57.629Z,63.38
2015-12-26T08:36:57.398Z,63.18
2015-12-26T08:37:57.370Z,63.41
2015-12-26T08:38:57.326Z,63.21
2015-12-26T08:39:57.296Z,62.83
2015-12-26T08:40:57.268Z,61.96
2015-12-26T08:41:57.256Z,62.06
2015-12-26T08:42:57.212Z,61.71
2015-12-26T08:43:57.276Z,62.09
2015-12-26T08:44:57.170Z,61.9
2015-12-26T08:45:57.126Z,61.8
2015-12-26T08:46:57.301Z,61.71
2015-12-26T08:47:57.069Z,61.9
2015-12-26T08:48:57.040Z,61.8
2015-12-26T08:49:57.028Z,62.18
2015-12-26T08:50:56.967Z,62.09
2015-12-26T08:51:56.939Z,62.38
2015-12-26T08:52:56.926Z,61.8
2015-12-26T08:53:56.898Z,62.38
2015-12-26T08:54:56.885Z,62.25
2015-12-26T08:55:56.840Z,62.63
2015-12-26T08:56:56.797Z,62.54
2015-12-26T08:57:56.768Z,62.73
2015-12-26T08:58:56.770Z,62.25
2015-12-26T08:59:56.726Z,62.63
2015-12-26T09:00:56.526Z,63.02
2015-12-26T09:01:56.654Z,63.12
2015-12-26T09:02:56.844Z,63.31
2015-12-26T09:03:56.609Z,63.21
2015-12-26T09:04:56.566Z,63.41
2015-12-26T09:05:56.755Z,62.63
2015-12-26T09:06:56.524Z,63.21
2015-12-26T09:07:56.511Z,63.7
2015-12-26T09:08:56.467Z,63.5
2015-12-26T09:09:56.427Z,63.41
2015-12-26T09:10:56.399Z,63.5
2015-12-26T09:11:56.371Z,63.85
2015-12-26T09:12:56.357Z,63.76
2015-12-26T09:13:56.515Z,63.79
2015-12-26T09:14:56.284Z,63.7
2015-12-26T09:15:56.304Z,64.15
2015-12-26T09:16:56.227Z,64.15
2015-12-26T09:17:56.199Z,64.43
2015-12-26T09:18:56.187Z,64.34
2015-12-26T09:19:56.142Z,64.05
2015-12-26T09:20:56.113Z,64.53
2015-12-26T09:21:56.288Z,64.63
2015-12-26T09:22:56.056Z,64.34
2015-12-26T09:23:56.043Z,64.34
2015-12-26T09:24:56.031Z,64.53
2015-12-26T09:25:55.971Z,64.34
2015-12-26T09:26:55.959Z,64.15
2015-12-26T09:27:55.930Z,64.05
2015-12-26T09:28:55.886Z,64.05
2015-12-26T09:29:55.857Z,63.76
2015-12-26T09:30:55.845Z,64.25
2015-12-26T09:31:55.815Z,64.25
2015-12-26T09:32:55.771Z,63.47
2015-12-26T09:33:55.774Z,63.5
2015-12-26T09:34:55.715Z,63.67
2015-12-26T09:35:55.733Z,63.12
2015-12-26T09:36:55.657Z,63.5
2015-12-26T09:37:55.629Z,63.41
2015-12-26T09:38:55.617Z,62.35
2015-12-26T09:39:55.573Z,63.12
2015-12-26T09:40:55.840Z,62.35
2015-12-26T09:41:55.609Z,62.18
2015-12-26T09:42:55.549Z,62.09
2015-12-26T09:43:55.567Z,61.8
2015-12-26T09:44:55.428Z,61.8
2015-12-26T09:45:55.464Z,61.99
2015-12-26T09:46:55.467Z,62.09
2015-12-26T09:47:55.359Z,62.18
2015-12-26T09:48:55.596Z,61.9
2015-12-26T09:49:55.287Z,61.9
2015-12-26T09:50:55.259Z,61.9
2015-12-26T09:51:55.261Z,62.09
2015-12-26T09:52:55.561Z,62.66
2015-12-26T09:53:58.188Z,62.28
2015-12-26T09:54:55.235Z,62.18
2015-12-26T09:55:55.128Z,61.99
2015-12-26T09:56:55.083Z,62.38
2015-12-26T09:57:55.369Z,62.28
2015-12-26T09:58:55.058Z,62.57
2015-12-26T09:59:55.014Z,62.57
2015-12-26T10:00:54.361Z,62.76
2015-12-26T10:01:54.942Z,62.66
2015-12-26T10:02:54.913Z,62.73
2015-12-26T10:03:54.900Z,62.93
2015-12-26T10:04:54.856Z,63.5
2015-12-26T10:05:54.844Z,63.5
2015-12-26T10:06:54.799Z,64.28
2015-12-26T10:07:54.849Z,64.28
2015-12-26T10:08:54.742Z,64.63
2015-12-26T10:09:54.713Z,65.01
2015-12-26T10:10:54.686Z,64.73
2015-12-26T10:11:54.813Z,65.11
2015-12-26T10:12:54.628Z,64.73
2015-12-26T10:13:54.616Z,64.76
2015-12-26T10:14:54.588Z,64.76
2015-12-26T10:15:54.543Z,64.76
2015-12-26T10:16:54.530Z,65.14
2015-12-26T10:17:54.502Z,64.76
2015-12-26T10:18:54.567Z,65.05
2015-12-26T10:19:54.620Z,65.05
2015-12-26T10:20:54.420Z,65.05
2015-12-26T10:21:54.376Z,65.14
2015-12-26T10:22:54.363Z,64.95
2015-12-26T10:23:54.319Z,64.86
2015-12-26T10:24:54.322Z,65.05
2015-12-26T10:25:54.262Z,64.86
2015-12-26T10:26:54.249Z,63.5
2015-12-26T10:27:54.220Z,63.38
2015-12-26T10:28:54.176Z,62.6
2015-12-26T10:29:54.164Z,63.41
2015-12-26T10:30:54.276Z,62.93
2015-12-26T10:31:54.106Z,62.51
2015-12-26T10:32:54.078Z,63.09
2015-12-26T10:33:54.034Z,63.28
2015-12-26T10:34:54.020Z,64.02
2015-12-26T10:35:53.977Z,64.12
2015-12-26T10:36:53.964Z,64.6
2015-12-26T10:37:53.936Z,64.79
2015-12-26T10:38:55.064Z,64.6
2015-12-26T10:39:53.892Z,66.49
2015-12-26T10:40:54.488Z,65.81
2015-12-26T10:41:54.006Z,65.43
2015-12-26T10:42:53.789Z,65.62
2015-12-26T10:43:53.761Z,65.14
2015-12-26T10:44:53.717Z,65.43
2015-12-26T10:45:53.688Z,65.62
2015-12-26T10:46:53.676Z,65.62
2015-12-26T10:47:53.491Z,65.53
2015-12-26T10:48:53.666Z,66.1
2015-12-26T10:49:53.748Z,66.36
2015-12-26T10:50:53.547Z,66.74
2015-12-26T10:51:53.534Z,66.64
2015-12-26T10:52:53.490Z,66.64
2015-12-26T10:53:53.461Z,66.64
2015-12-26T10:54:53.480Z,67.13
2015-12-26T10:55:53.421Z,67.03
2015-12-26T10:56:53.439Z,67.09
2015-12-26T10:57:53.504Z,66.8
2015-12-26T10:58:53.320Z,66.93
2015-12-26T10:59:53.291Z,66.93
2015-12-26T11:00:53.528Z,66.64
2015-12-26T11:01:53.218Z,66.84
2015-12-26T11:02:53.189Z,66.74
2015-12-26T11:03:53.178Z,67.03
2015-12-26T11:04:53.148Z,66.55
2015-12-26T11:05:53.104Z,66
2015-12-26T11:06:53.075Z,65.91
2015-12-26T11:07:53.047Z,65.62
2015-12-26T11:08:53.191Z,64.89
2015-12-26T11:09:53.006Z,64.4
2015-12-26T11:10:53.260Z,64.5
2015-12-26T11:11:52.779Z,64.05
2015-12-26T11:12:52.906Z,64.05
2015-12-26T11:13:52.877Z,64.15
2015-12-26T11:14:52.849Z,63.57
2015-12-26T11:15:52.820Z,63.57
2015-12-26T11:16:52.885Z,64.15
2015-12-26T11:17:52.778Z,64.05
2015-12-26T11:18:52.750Z,64.34
2015-12-26T11:19:52.784Z,64.34
2015-12-26T11:20:52.803Z,64.43
2015-12-26T11:21:52.821Z,64.34
2015-12-26T11:22:52.792Z,64.15
2015-12-26T11:23:52.608Z,63.95
2015-12-26T11:24:52.642Z,63.67
2015-12-26T11:25:52.551Z,63.67
2015-12-26T11:26:52.506Z,64.15
2015-12-26T11:27:52.697Z,63.22
2015-12-26T11:28:52.447Z,63.7
2015-12-26T11:29:52.450Z,63.31
2015-12-26T11:30:52.390Z,63.99
2015-12-26T11:31:52.361Z,64.05
2015-12-26T11:32:52.348Z,64.05
2015-12-26T11:33:52.304Z,64.05
2015-12-26T11:34:52.276Z,64.53
2015-12-26T11:35:52.575Z,64.15
2015-12-26T11:36:52.202Z,64.34
2015-12-26T11:37:52.190Z,64.53
2015-12-26T11:38:52.381Z,64.73
2015-12-26T11:39:52.133Z,64.73
2015-12-26T11:40:52.089Z,65.3
2015-12-26T11:41:52.076Z,64.73
2015-12-26T11:42:52.033Z,64.63
2015-12-26T11:43:52.300Z,64.53
2015-12-26T11:44:51.991Z,65.01
2015-12-26T11:45:51.947Z,64.53
2015-12-26T11:46:52.136Z,64.73
2015-12-26T11:47:51.905Z,64.82
2015-12-26T11:48:51.877Z,64.82
2015-12-26T11:49:51.832Z,65.4
2015-12-26T11:50:51.836Z,64.92
2015-12-26T11:51:51.791Z,64.73
2015-12-26T11:52:51.763Z,64.82
2015-12-26T11:53:51.719Z,64.82
2015-12-26T11:54:51.816Z,64.53
2015-12-26T11:55:51.662Z,64.63
2015-12-26T11:56:51.639Z,65.11
2015-12-26T11:57:51.814Z,65.01
2015-12-26T11:58:51.582Z,64.53
2015-12-26T11:59:51.866Z,64.43
2015-12-26T12:00:51.525Z,64.82
2015-12-26T12:01:51.481Z,64.82
2015-12-26T12:02:51.467Z,65.01
2015-12-26T12:03:51.424Z,64.82
2015-12-26T12:04:51.411Z,65.4
2015-12-26T12:05:51.586Z,64.92
2015-12-26T12:06:51.339Z,64.92
2015-12-26T12:07:51.311Z,64.92
2015-12-26T12:08:51.313Z,65.11
2015-12-26T12:09:51.269Z,65.11
2015-12-26T12:10:51.240Z,64.82
2015-12-26T12:11:51.211Z,64.73
2015-12-26T12:12:51.714Z,64.82
2015-12-26T12:13:51.537Z,64.82
2015-12-26T12:14:51.100Z,64.82
2015-12-26T12:15:51.641Z,65.01
2015-12-26T12:16:51.143Z,65.01
2015-12-26T12:17:51.021Z,64.92
2015-12-26T12:18:51.040Z,64.92
2015-12-26T12:19:50.964Z,64.82
2015-12-26T12:20:50.951Z,64.92
2015-12-26T12:21:50.907Z,65.2
2015-12-26T12:24:01.131Z,64.92
2015-12-26T12:25:01.103Z,65.2
2015-12-26T12:26:00.982Z,65.4
2015-12-26T12:27:00.969Z,64.73
2015-12-26T12:28:00.941Z,65.2
2015-12-26T12:29:00.911Z,65.4
2015-12-26T12:30:00.868Z,65.3
2015-12-26T12:31:00.870Z,65.3
2015-12-26T12:32:00.810Z,65.2
2015-12-26T12:33:00.782Z,64.63
2015-12-26T12:34:00.769Z,65.2
2015-12-26T12:35:00.740Z,65.2
2015-12-26T12:36:00.712Z,65.2
2015-12-26T12:37:00.668Z,65.01
2015-12-26T12:38:00.640Z,65.2
2015-12-26T12:39:00.627Z,65.2
2015-12-26T12:40:00.598Z,65.2
2015-12-26T12:41:00.554Z,65.5
2015-12-26T12:42:00.541Z,65.4
2015-12-26T12:43:00.497Z,65.4
